Time;durP1;ratioP1;P1;durP2;ratioP2;P2;SDS_P1;SDS_P2;PMS_P1;PMS_P2;Temp;Humidity;BMP_temperature;BMP_pressure;BME280_temperature;BME280_humidity;BME280_pressure;Samples;Min_cycle;Max_cycle;Signal;HPM_P1;HPM_P2
2024/02/18 00:01:17;;;;;;;18.90;10.90;;;;;;;0.40;79.18;103008.67;104849;1256;73719;-62
2024/02/18 00:03:55;;;;;;;19.40;10.50;;;;;;;0.40;79.40;103004.89;104611;1257;66677;-62
2024/02/18 00:06:22;;;;;;;18.90;10.10;;;;;;;0.41;79.38;103006.56;104466;1256;138947;-62
2024/02/18 00:08:49;;;;;;;22.90;12.10;;;;;;;0.41;79.71;103007.39;104523;1256;61348;-62
2024/02/18 00:11:16;;;;;;;47.80;22.30;;;;;;;0.41;79.69;103001.86;104422;1259;138988;-61
2024/02/18 00:13:43;;;;;;;34.20;15.80;;;;;;;0.40;79.79;102999.59;104393;1256;73870;-63
2024/02/18 00:16:10;;;;;;;16.40;10.50;;;;;;;0.39;79.96;103010.89;104482;1257;67203;-61
2024/02/18 00:18:37;;;;;;;25.00;12.90;;;;;;;0.40;80.11;103015.59;104744;1259;139177;-61
2024/02/18 00:21:04;;;;;;;30.90;18.80;;;;;;;0.39;80.23;103015.23;104928;1255;61311;-61
2024/02/18 00:23:31;;;;;;;27.40;18.10;;;;;;;0.39;80.28;103009.47;104866;1257;138355;-61
2024/02/18 00:25:59;;;;;;;16.90;10.90;;;;;;;0.39;80.27;103012.05;104963;1257;75095;-61
2024/02/18 00:28:26;;;;;;;16.80;10.60;;;;;;;0.39;80.42;103017.23;105023;1256;64384;-61
2024/02/18 00:30:53;;;;;;;13.00;7.30;;;;;;;0.40;80.56;103024.44;105057;1259;71784;-62
2024/02/18 00:33:20;;;;;;;18.20;11.40;;;;;;;0.41;80.70;103025.86;109126;1256;59131;-63
2024/02/18 00:35:47;;;;;;;24.50;13.40;;;;;;;0.41;80.96;103027.94;108829;1255;138529;-61
2024/02/18 00:38:14;;;;;;;12.10;8.20;;;;;;;0.43;80.95;103026.78;109066;1254;74803;-60
2024/02/18 00:40:41;;;;;;;16.20;8.10;;;;;;;0.47;81.12;103027.86;108888;1254;138931;-60
2024/02/18 00:43:07;;;;;;;46.40;22.30;;;;;;;0.49;81.02;103029.48;108790;1255;73661;-60
2024/02/18 00:45:34;;;;;;;16.20;8.90;;;;;;;0.50;81.06;103026.30;104725;1257;61241;-61
2024/02/18 00:48:01;;;;;;;19.20;9.70;;;;;;;0.50;81.33;103030.13;104891;1260;139216;-61
2024/02/18 00:50:28;;;;;;;17.80;9.60;;;;;;;0.52;81.47;103026.02;105023;1259;74099;-61
2024/02/18 00:52:54;;;;;;;11.00;7.40;;;;;;;0.53;81.46;103025.29;104627;1257;139317;-60
2024/02/18 00:55:22;;;;;;;11.80;7.40;;;;;;;0.55;81.44;103029.45;104632;1259;72466;-60
2024/02/18 00:57:49;;;;;;;10.10;6.60;;;;;;;0.57;81.68;103032.03;105043;1259;61245;-61
2024/02/18 01:00:16;;;;;;;11.10;6.00;;;;;;;0.57;81.71;103033.80;104781;1257;139077;-60
2024/02/18 01:02:43;;;;;;;10.10;6.70;;;;;;;0.58;81.71;103037.84;108771;1256;75754;-61
2024/02/18 01:05:09;;;;;;;11.60;6.40;;;;;;;0.58;81.76;103038.86;108671;1257;138557;-62
2024/02/18 01:07:37;;;;;;;11.00;6.20;;;;;;;0.57;81.72;103034.31;108414;1255;72240;-61
2024/02/18 01:10:06;;;;;;;9.40;5.90;;;;;;;0.58;82.05;103028.20;108742;1257;59244;-62
2024/02/18 01:12:32;;;;;;;9.60;6.10;;;;;;;0.60;81.99;103021.58;108566;1256;138769;-61
2024/02/18 01:14:59;;;;;;;11.10;6.70;;;;;;;0.61;82.02;103024.26;109006;1255;73692;-60
2024/02/18 01:17:26;;;;;;;9.60;6.60;;;;;;;0.61;81.97;103022.45;108926;1256;138306;-60
2024/02/18 01:19:57;;;;;;;10.00;7.20;;;;;;;0.61;81.93;103020.00;109034;1256;71162;-61
2024/02/18 01:22:24;;;;;;;13.70;8.50;;;;;;;0.62;81.86;103019.92;109032;1257;59256;-62
2024/02/18 01:24:51;;;;;;;12.40;8.30;;;;;;;0.61;81.93;103013.63;108680;1255;138254;-62
2024/02/18 01:27:18;;;;;;;12.20;7.80;;;;;;;0.62;81.94;103016.92;108361;1256;75488;-60
2024/02/18 01:29:45;;;;;;;10.20;6.50;;;;;;;0.63;82.06;103020.85;104619;1259;139073;-61
2024/02/18 01:32:11;;;;;;;14.60;7.10;;;;;;;0.62;81.97;103019.17;104924;1257;73273;-63
2024/02/18 01:34:38;;;;;;;11.40;7.50;;;;;;;0.62;81.92;103019.33;104836;1259;139110;-62
2024/02/18 01:37:05;;;;;;;11.20;7.30;;;;;;;0.60;82.02;103022.16;104944;1256;61143;-61
2024/02/18 01:39:32;;;;;;;11.40;7.60;;;;;;;0.60;82.25;103016.77;104816;1260;75591;-62
2024/02/18 01:41:59;;;;;;;9.30;7.00;;;;;;;0.57;82.10;103017.40;104718;1259;138412;-61
2024/02/18 01:44:26;;;;;;;8.50;6.20;;;;;;;0.55;82.36;103019.86;104739;1257;73197;-61
2024/02/18 01:46:53;;;;;;;9.10;6.20;;;;;;;0.54;82.48;103020.04;104865;1259;138196;-61
2024/02/18 01:49:19;;;;;;;11.10;6.70;;;;;;;0.53;82.43;103019.70;104991;1259;61148;-61
2024/02/18 01:51:47;;;;;;;10.80;6.90;;;;;;;0.52;82.68;103025.16;105116;1255;74555;-62
2024/02/18 01:54:14;;;;;;;10.10;6.90;;;;;;;0.51;82.55;103032.80;104716;1257;138811;-62
2024/02/18 01:56:40;;;;;;;10.10;7.10;;;;;;;0.49;82.73;103034.36;104507;1260;73474;-61
2024/02/18 01:59:07;;;;;;;13.60;7.90;;;;;;;0.50;82.71;103030.43;104498;1255;138535;-60
2024/02/18 02:01:34;;;;;;;12.70;7.60;;;;;;;0.49;82.88;103028.60;104729;1259;61244;-60
2024/02/18 02:04:00;;;;;;;10.90;6.80;;;;;;;0.47;82.98;103026.92;104795;1260;73153;-61
2024/02/18 02:06:29;;;;;;;13.50;7.60;;;;;;;0.48;82.81;103027.44;104670;1259;139001;-61
2024/02/18 02:08:56;;;;;;;11.70;8.40;;;;;;;0.46;82.87;103026.79;104603;1257;72247;-62
2024/02/18 02:11:24;;;;;;;11.10;7.60;;;;;;;0.46;82.97;103031.06;104859;1259;138526;-62
2024/02/18 02:13:50;;;;;;;12.80;7.80;;;;;;;0.45;83.07;103035.78;104828;1255;61377;-60
2024/02/18 02:16:18;;;;;;;10.80;7.90;;;;;;;0.44;82.97;103039.89;104731;1256;75825;-61
2024/02/18 02:18:45;;;;;;;11.00;7.90;;;;;;;0.42;83.02;103037.54;108904;1256;138338;-61
2024/02/18 02:21:11;;;;;;;12.60;7.80;;;;;;;0.40;83.03;103035.34;107611;1256;70746;-61
2024/02/18 02:23:38;;;;;;;12.10;7.60;;;;;;;0.39;83.12;103034.18;104825;1256;138334;-61
2024/02/18 02:26:05;;;;;;;10.00;7.50;;;;;;;0.36;83.13;103035.41;104593;1257;62204;-60
2024/02/18 02:28:35;;;;;;;11.70;7.50;;;;;;;0.35;83.12;103035.14;104444;1259;138981;-61
2024/02/18 02:31:02;;;;;;;10.80;7.30;;;;;;;0.32;83.08;103036.45;108628;1256;65228;-61
2024/02/18 02:33:30;;;;;;;11.90;8.50;;;;;;;0.31;83.19;103034.91;108900;1256;73221;-62
2024/02/18 02:35:57;;;;;;;13.40;8.10;;;;;;;0.30;83.23;103035.30;108922;1255;138425;-61
2024/02/18 02:38:23;;;;;;;11.10;8.00;;;;;;;0.28;83.21;103034.60;108973;1255;61417;-61
2024/02/18 02:40:51;;;;;;;12.70;8.10;;;;;;;0.27;83.02;103033.98;109009;1254;139443;-62
2024/02/18 02:43:17;;;;;;;11.40;7.70;;;;;;;0.26;83.05;103032.15;109096;1255;66918;-63
2024/02/18 02:45:44;;;;;;;11.40;7.10;;;;;;;0.25;83.19;103035.02;109035;1255;70523;-63
2024/02/18 02:48:11;;;;;;;12.20;8.00;;;;;;;0.24;83.20;103044.55;108956;1255;138410;-63
2024/02/18 02:50:37;;;;;;;12.60;7.90;;;;;;;0.24;83.13;103047.63;108930;1255;67930;-62
2024/02/18 02:53:04;;;;;;;11.60;8.10;;;;;;;0.23;83.18;103049.95;108896;1257;138542;-61
2024/02/18 02:55:31;;;;;;;11.20;7.10;;;;;;;0.21;83.04;103050.23;105680;1256;66178;-63
2024/02/18 02:57:59;;;;;;;10.40;7.80;;;;;;;0.19;83.08;103050.47;104718;1256;73703;-61
2024/02/18 03:00:26;;;;;;;12.20;6.90;;;;;;;0.17;83.09;103047.80;104616;1257;139235;-62
2024/02/18 03:02:53;;;;;;;11.60;7.50;;;;;;;0.15;83.19;103045.48;104594;1259;61330;-61
2024/02/18 03:05:20;;;;;;;12.10;7.80;;;;;;;0.12;83.21;103047.52;104937;1257;138694;-62
2024/02/18 03:07:46;;;;;;;12.40;7.50;;;;;;;0.11;83.31;103049.10;104883;1254;67446;-61
2024/02/18 03:10:13;;;;;;;11.80;7.70;;;;;;;0.10;83.10;103049.44;104877;1255;72133;-60
2024/02/18 03:12:40;;;;;;;11.20;7.90;;;;;;;0.06;83.22;103048.91;104651;1255;139041;-61
2024/02/18 03:15:08;;;;;;;12.20;8.40;;;;;;;0.04;83.09;103050.59;108827;1255;59528;-62
2024/02/18 03:17:35;;;;;;;13.50;8.70;;;;;;;0.01;83.18;103053.08;108884;1256;138913;-62
2024/02/18 03:20:07;;;;;;;15.00;8.20;;;;;;;-0.01;83.27;103058.91;108775;1255;66652;-61
2024/02/18 03:22:34;;;;;;;11.00;7.40;;;;;;;-0.02;83.21;103061.66;108604;1256;138886;-61
2024/02/18 03:25:01;;;;;;;11.00;8.00;;;;;;;-0.03;83.39;103063.89;108617;1256;59642;-60
2024/02/18 03:27:27;;;;;;;12.80;7.80;;;;;;;-0.03;83.41;103065.71;108672;1257;60169;-61
2024/02/18 03:29:54;;;;;;;11.60;8.10;;;;;;;-0.05;83.47;103069.84;108885;1255;139370;-60
2024/02/18 03:32:22;;;;;;;10.80;8.00;;;;;;;-0.06;83.49;103073.01;108767;1256;67252;-60
2024/02/18 03:34:48;;;;;;;11.80;7.90;;;;;;;-0.07;83.37;103078.23;108674;1256;139122;-60
2024/02/18 03:37:15;;;;;;;15.90;9.00;;;;;;;-0.09;83.66;103080.36;108704;1256;58937;-60
2024/02/18 03:39:42;;;;;;;11.40;7.60;;;;;;;-0.10;83.55;103079.48;108770;1255;61037;-60
2024/02/18 03:42:09;;;;;;;13.40;8.00;;;;;;;-0.13;83.66;103079.05;108627;1254;139540;-61
2024/02/18 03:44:35;;;;;;;12.80;8.20;;;;;;;-0.13;83.64;103079.66;108932;1256;66321;-61
2024/02/18 03:47:02;;;;;;;11.30;7.70;;;;;;;-0.14;83.69;103078.59;108965;1255;139067;-61
2024/02/18 03:49:30;;;;;;;11.50;8.50;;;;;;;-0.13;83.99;103074.30;108941;1255;59694;-60
2024/02/18 03:51:57;;;;;;;11.90;7.80;;;;;;;-0.14;83.98;103076.80;109047;1255;59798;-60
2024/02/18 03:54:23;;;;;;;10.90;7.90;;;;;;;-0.14;83.86;103075.76;108760;1255;138497;-61
2024/02/18 03:56:50;;;;;;;10.90;8.00;;;;;;;-0.13;84.19;103075.34;108748;1255;67324;-60
2024/02/18 03:59:17;;;;;;;10.30;7.20;;;;;;;-0.13;84.17;103074.55;108582;1256;138746;-61
2024/02/18 04:01:44;;;;;;;10.10;7.00;;;;;;;-0.11;84.38;103072.12;108697;1256;59290;-61
2024/02/18 04:04:11;;;;;;;12.60;7.50;;;;;;;-0.09;84.28;103071.66;107620;1257;62275;-62
2024/02/18 04:06:38;;;;;;;10.40;7.30;;;;;;;-0.09;84.27;103070.51;104759;1255;139345;-62
2024/02/18 04:09:08;;;;;;;8.90;7.00;;;;;;;-0.09;84.48;103071.35;105004;1257;66856;-62
2024/02/18 04:11:35;;;;;;;9.50;7.00;;;;;;;-0.10;84.49;103069.70;104755;1260;138345;-61
2024/02/18 04:14:01;;;;;;;10.20;6.60;;;;;;;-0.09;84.44;103067.91;104826;1255;61346;-62
2024/02/18 04:16:28;;;;;;;10.00;7.00;;;;;;;-0.08;84.49;103068.89;104726;1259;138626;-61
2024/02/18 04:18:55;;;;;;;7.70;6.20;;;;;;;-0.09;84.51;103066.54;108853;1255;73268;-62
2024/02/18 04:21:21;;;;;;;10.30;7.00;;;;;;;-0.10;84.62;103067.81;108801;1256;65728;-62
2024/02/18 04:23:48;;;;;;;10.20;7.20;;;;;;;-0.11;84.61;103063.84;108589;1255;138457;-62
2024/02/18 04:26:15;;;;;;;12.50;7.50;;;;;;;-0.12;84.77;103066.33;108687;1256;58966;-63
2024/02/18 04:28:43;;;;;;;10.00;6.40;;;;;;;-0.13;84.47;103066.45;108571;1254;138728;-62
2024/02/18 04:31:10;;;;;;;9.60;6.90;;;;;;;-0.14;84.48;103063.92;108942;1254;74927;-62
2024/02/18 04:33:37;;;;;;;8.60;6.30;;;;;;;-0.13;84.48;103061.42;105690;1257;64752;-62
2024/02/18 04:36:04;;;;;;;10.60;7.00;;;;;;;-0.14;84.55;103065.11;104594;1259;138788;-62
2024/02/18 04:38:31;;;;;;;8.30;6.50;;;;;;;-0.14;84.68;103070.25;104795;1259;60510;-61
2024/02/18 04:40:58;;;;;;;8.30;6.20;;;;;;;-0.15;84.78;103071.34;104455;1255;138565;-61
2024/02/18 04:43:25;;;;;;;9.10;6.70;;;;;;;-0.16;84.54;103073.14;104593;1260;75435;-61
2024/02/18 04:45:52;;;;;;;9.50;6.40;;;;;;;-0.18;84.55;103069.83;104704;1261;66858;-61
2024/02/18 04:48:18;;;;;;;8.50;6.10;;;;;;;-0.21;84.80;103070.98;104828;1257;139001;-62
2024/02/18 04:50:45;;;;;;;9.10;6.50;;;;;;;-0.23;84.86;103072.48;104979;1255;61368;-62
2024/02/18 04:53:12;;;;;;;9.40;6.50;;;;;;;-0.26;84.93;103070.39;104654;1259;138539;-62
2024/02/18 04:55:39;;;;;;;9.90;6.80;;;;;;;-0.26;84.95;103075.64;104579;1259;75319;-62
2024/02/18 04:58:05;;;;;;;9.80;7.20;;;;;;;-0.27;84.94;103078.58;104586;1255;66165;-62
2024/02/18 05:00:32;;;;;;;7.90;6.50;;;;;;;-0.28;84.95;103082.50;104414;1255;138582;-60
2024/02/18 05:02:59;;;;;;;9.20;6.30;;;;;;;-0.28;84.97;103084.20;104835;1259;61228;-60
2024/02/18 05:05:26;;;;;;;9.10;6.90;;;;;;;-0.28;85.13;103084.83;104608;1257;138784;-60
2024/02/18 05:07:52;;;;;;;10.20;7.00;;;;;;;-0.29;85.14;103083.37;105012;1257;73439;-60
2024/02/18 05:10:19;;;;;;;10.10;6.70;;;;;;;-0.30;85.13;103084.64;104888;1256;65286;-60
2024/02/18 05:12:46;;;;;;;10.90;7.20;;;;;;;-0.30;85.14;103087.41;104793;1259;138651;-61
2024/02/18 05:15:13;;;;;;;10.30;7.00;;;;;;;-0.31;85.16;103088.54;104823;1257;61230;-62
2024/02/18 05:17:39;;;;;;;8.50;6.80;;;;;;;-0.33;85.21;103090.70;104743;1257;139228;-61
2024/02/18 05:20:09;;;;;;;11.60;7.60;;;;;;;-0.35;85.26;103090.33;104945;1254;74714;-60
2024/02/18 05:22:39;;;;;;;8.10;6.50;;;;;;;-0.36;85.27;103087.80;108968;1256;139149;-62
2024/02/18 05:25:06;;;;;;;8.30;6.50;;;;;;;-0.37;85.15;103087.33;108748;1256;72546;-62
2024/02/18 05:27:33;;;;;;;9.10;7.30;;;;;;;-0.38;85.19;103094.29;108697;1255;59244;-62
2024/02/18 05:30:00;;;;;;;13.00;8.70;;;;;;;-0.38;85.19;103088.63;108577;1255;138403;-62
2024/02/18 05:32:26;;;;;;;10.30;8.20;;;;;;;-0.39;85.11;103085.03;108692;1254;75638;-62
2024/02/18 05:34:54;;;;;;;9.60;7.70;;;;;;;-0.41;85.07;103081.77;107799;1256;139428;-62
2024/02/18 05:37:21;;;;;;;11.00;8.70;;;;;;;-0.46;85.01;103080.95;104830;1257;72682;-62
2024/02/18 05:39:47;;;;;;;15.80;11.20;;;;;;;-0.44;85.03;103088.20;104747;1257;61262;-62
2024/02/18 05:42:14;;;;;;;20.40;13.60;;;;;;;-0.44;85.02;103092.66;104721;1256;139905;-62
2024/02/18 05:44:42;;;;;;;17.00;11.50;;;;;;;-0.45;85.02;103101.67;104842;1259;73900;-63
2024/02/18 05:47:09;;;;;;;12.00;9.40;;;;;;;-0.46;85.11;103105.08;104811;1259;139245;-62
2024/02/18 05:49:36;;;;;;;12.70;9.30;;;;;;;-0.46;85.23;103109.01;104909;1259;72874;-62
2024/02/18 05:52:03;;;;;;;13.70;10.10;;;;;;;-0.48;85.09;103111.06;104715;1259;61899;-62
2024/02/18 05:54:30;;;;;;;11.90;9.70;;;;;;;-0.49;85.05;103115.37;108554;1255;139342;-61
2024/02/18 05:56:58;;;;;;;12.60;9.40;;;;;;;-0.50;85.29;103111.65;108609;1256;74785;-62
2024/02/18 05:59:24;;;;;;;11.10;8.70;;;;;;;-0.49;85.15;103115.95;108618;1257;138928;-62
2024/02/18 06:01:51;;;;;;;12.60;9.40;;;;;;;-0.47;85.19;103109.53;108661;1256;70835;-62
2024/02/18 06:04:18;;;;;;;11.30;8.90;;;;;;;-0.47;85.07;103111.67;109018;1254;58930;-62
2024/02/18 06:06:44;;;;;;;12.00;9.10;;;;;;;-0.47;85.30;103114.80;108976;1254;138504;-61
2024/02/18 06:09:11;;;;;;;10.50;8.40;;;;;;;-0.45;85.21;103116.23;108960;1257;74052;-62
2024/02/18 06:11:38;;;;;;;10.90;8.80;;;;;;;-0.43;85.29;103119.72;108887;1256;138891;-62
2024/02/18 06:14:04;;;;;;;12.90;9.00;;;;;;;-0.39;85.33;103122.48;108927;1256;71892;-63
2024/02/18 06:16:31;;;;;;;11.00;8.80;;;;;;;-0.33;85.33;103124.48;108724;1256;138596;-62
2024/02/18 06:18:58;;;;;;;12.00;9.80;;;;;;;-0.28;85.38;103126.95;109056;1257;61865;-61
2024/02/18 06:21:24;;;;;;;12.70;9.10;;;;;;;-0.20;85.42;103124.39;108645;1257;73915;-61
2024/02/18 06:23:55;;;;;;;10.00;8.70;;;;;;;-0.10;85.47;103122.26;108569;1255;138645;-61
2024/02/18 06:26:23;;;;;;;11.20;8.90;;;;;;;0.01;85.59;103120.36;108699;1259;70524;-61
2024/02/18 06:28:50;;;;;;;11.00;9.00;;;;;;;0.13;85.59;103121.10;108502;1256;139047;-62
2024/02/18 06:31:17;;;;;;;10.90;8.90;;;;;;;0.20;85.57;103122.02;109041;1256;59780;-62
2024/02/18 06:33:46;;;;;;;13.10;9.90;;;;;;;0.28;85.46;103122.82;108952;1254;74387;-62
2024/02/18 06:36:12;;;;;;;11.20;8.60;;;;;;;0.36;85.54;103130.42;106926;1257;138965;-63
2024/02/18 06:38:43;;;;;;;11.60;8.70;;;;;;;0.45;85.26;103139.67;104582;1257;72184;-63
2024/02/18 06:41:10;;;;;;;10.60;8.30;;;;;;;0.52;85.27;103143.27;104466;1257;139200;-62
2024/02/18 06:43:37;;;;;;;11.50;9.20;;;;;;;0.62;85.33;103140.47;108759;1255;59309;-61
2024/02/18 06:46:04;;;;;;;9.70;7.90;;;;;;;0.75;85.45;103148.05;108597;1257;74725;-63
2024/02/18 06:48:30;;;;;;;11.50;9.00;;;;;;;0.92;85.53;103145.82;104455;1259;138886;-62
2024/02/18 06:50:57;;;;;;;11.40;8.70;;;;;;;1.08;85.46;103146.11;104464;1257;73585;-62
2024/02/18 06:53:24;;;;;;;9.50;8.40;;;;;;;1.28;85.55;103140.01;104512;1257;138494;-60
2024/02/18 06:55:51;;;;;;;10.60;8.70;;;;;;;1.39;84.98;103143.66;104581;1259;61237;-60
2024/02/18 06:58:19;;;;;;;10.30;8.70;;;;;;;1.41;84.82;103145.39;104527;1257;75159;-62
2024/02/18 07:00:45;;;;;;;10.10;8.30;;;;;;;1.51;84.73;103148.65;108602;1257;138810;-63
2024/02/18 07:03:12;;;;;;;11.40;9.30;;;;;;;1.60;84.72;103151.67;108746;1257;74366;-63
2024/02/18 07:05:39;;;;;;;10.90;8.60;;;;;;;1.69;84.53;103154.35;108562;1257;139492;-62
2024/02/18 07:08:06;;;;;;;12.40;9.20;;;;;;;1.83;84.35;103156.91;108634;1257;60259;-61
2024/02/18 07:10:33;;;;;;;11.60;9.40;;;;;;;1.93;84.20;103149.91;108630;1255;138892;-62
2024/02/18 07:13:00;;;;;;;10.80;8.70;;;;;;;2.01;83.91;103151.52;108674;1256;65701;-62
2024/02/18 07:15:26;;;;;;;10.90;8.90;;;;;;;2.06;83.85;103155.70;108651;1257;72923;-62
2024/02/18 07:17:53;;;;;;;10.80;8.90;;;;;;;2.11;83.59;103161.00;108586;1255;137825;-62
2024/02/18 07:20:20;;;;;;;11.90;9.70;;;;;;;2.12;83.08;103164.25;105739;1257;61338;-61
2024/02/18 07:22:46;;;;;;;12.50;9.70;;;;;;;2.07;82.90;103158.38;104519;1257;139026;-60
2024/02/18 07:25:13;;;;;;;11.90;9.80;;;;;;;2.11;83.18;103161.14;104752;1257;65472;-61
2024/02/18 07:27:40;;;;;;;9.70;8.50;;;;;;;2.12;82.81;103164.73;104737;1257;73870;-61
2024/02/18 07:30:08;;;;;;;9.70;8.10;;;;;;;2.12;82.86;103165.92;104796;1257;138228;-64
2024/02/18 07:32:36;;;;;;;10.70;8.30;;;;;;;2.16;82.87;103162.33;105110;1259;61343;-62
2024/02/18 07:35:03;;;;;;;10.90;8.70;;;;;;;2.19;82.96;103163.00;108789;1256;139506;-63
2024/02/18 07:37:30;;;;;;;11.90;9.30;;;;;;;2.22;82.81;103164.47;108827;1257;64243;-63
2024/02/18 07:39:57;;;;;;;13.10;9.20;;;;;;;2.23;82.72;103163.73;108893;1257;71126;-62
2024/02/18 07:42:25;;;;;;;12.00;9.10;;;;;;;2.28;82.62;103155.89;108761;1255;138514;-63
2024/02/18 07:44:52;;;;;;;10.30;8.70;;;;;;;2.33;82.68;103148.08;108900;1256;60763;-62
2024/02/18 07:47:19;;;;;;;9.80;8.30;;;;;;;2.41;82.81;103146.07;108854;1256;137697;-62
2024/02/18 07:49:46;;;;;;;8.80;7.60;;;;;;;2.47;82.60;103147.39;109041;1257;66370;-62
2024/02/18 07:52:12;;;;;;;10.00;8.10;;;;;;;2.56;82.68;103146.64;108902;1256;72789;-61
2024/02/18 07:54:44;;;;;;;8.70;7.80;;;;;;;2.64;82.49;103142.94;108792;1255;137809;-61
2024/02/18 07:57:11;;;;;;;10.20;8.40;;;;;;;2.76;82.54;103137.20;108274;1259;61187;-61
2024/02/18 07:59:37;;;;;;;8.00;7.10;;;;;;;2.85;82.53;103135.14;104647;1257;138365;-61
2024/02/18 08:02:04;;;;;;;9.40;7.80;;;;;;;2.94;82.23;103134.60;104732;1258;66253;-63
2024/02/18 08:04:31;;;;;;;7.80;6.50;;;;;;;3.03;82.26;103129.02;104640;1257;138675;-61
2024/02/18 08:06:58;;;;;;;8.50;6.80;;;;;;;3.19;82.28;103131.23;108844;1256;60572;-62
2024/02/18 08:09:25;;;;;;;10.20;7.30;;;;;;;3.35;82.23;103130.65;108926;1255;59232;-61
2024/02/18 08:11:51;;;;;;;9.00;6.80;;;;;;;3.50;81.75;103128.70;108937;1255;139015;-65
2024/02/18 08:14:18;;;;;;;9.10;7.10;;;;;;;3.66;81.88;103125.45;109103;1254;65363;-64
2024/02/18 08:16:45;;;;;;;8.60;7.40;;;;;;;3.86;81.82;103125.86;108783;1255;139641;-64
2024/02/18 08:19:12;;;;;;;9.00;6.00;;;;;;;4.05;81.64;103122.70;109005;1256;59905;-65
2024/02/18 08:21:38;;;;;;;8.80;6.60;;;;;;;4.19;81.17;103120.00;108999;1255;61083;-65
2024/02/18 08:24:06;;;;;;;7.10;6.30;;;;;;;4.28;81.03;103124.23;108855;1256;137569;-64
2024/02/18 08:26:33;;;;;;;8.40;6.60;;;;;;;4.39;80.76;103121.73;108921;1261;67679;-64
2024/02/18 08:29:00;;;;;;;7.70;6.10;;;;;;;4.49;80.63;103121.23;108872;1256;138829;-64
2024/02/18 08:31:26;;;;;;;8.70;6.30;;;;;;;4.60;80.49;103122.84;108915;1256;59093;-64
2024/02/18 08:33:53;;;;;;;9.80;7.40;;;;;;;4.69;80.19;103120.20;109053;1255;60602;-63
2024/02/18 08:36:20;;;;;;;8.30;6.70;;;;;;;4.73;79.77;103115.80;108562;1256;139035;-63
2024/02/18 08:38:49;;;;;;;8.30;7.10;;;;;;;4.81;79.77;103110.82;108933;1258;66635;-65
2024/02/18 08:41:16;;;;;;;7.00;6.20;;;;;;;4.98;79.81;103112.74;108868;1257;137348;-63
2024/02/18 08:43:42;;;;;;;8.60;6.20;;;;;;;5.14;79.51;103113.95;108834;1256;58971;-64
2024/02/18 08:46:09;;;;;;;7.70;6.20;;;;;;;5.26;79.26;103110.91;109030;1254;59903;-64
2024/02/18 08:48:37;;;;;;;8.10;6.80;;;;;;;5.37;79.08;103113.49;108637;1257;138005;-64
2024/02/18 08:51:05;;;;;;;8.60;7.70;;;;;;;5.49;78.92;103109.88;108883;1257;65245;-63
2024/02/18 08:53:31;;;;;;;10.10;7.70;;;;;;;5.56;78.66;103108.20;108834;1256;137619;-64
2024/02/18 08:55:58;;;;;;;9.50;7.90;;;;;;;5.60;78.47;103110.67;109019;1257;60048;-64
2024/02/18 08:58:25;;;;;;;10.90;8.50;;;;;;;5.70;78.29;103107.10;109051;1257;59157;-64
2024/02/18 09:00:52;;;;;;;9.70;8.40;;;;;;;5.82;78.15;103106.73;105441;1258;138160;-62
2024/02/18 09:03:18;;;;;;;9.30;7.70;;;;;;;5.94;78.17;103106.08;104754;1258;66093;-63
2024/02/18 09:05:45;;;;;;;10.80;9.20;;;;;;;6.03;77.83;103105.46;104647;1255;137560;-63
2024/02/18 09:08:12;;;;;;;10.60;8.50;;;;;;;6.05;77.53;103102.11;104886;1260;61358;-63
2024/02/18 09:10:40;;;;;;;11.40;9.00;;;;;;;6.07;77.50;103098.42;107868;1256;138531;-61
2024/02/18 09:13:07;;;;;;;15.00;11.10;;;;;;;6.11;77.46;103100.85;109027;1256;73891;-62
2024/02/18 09:15:34;;;;;;;15.10;10.60;;;;;;;6.10;77.21;103102.52;109029;1256;65913;-62
2024/02/18 09:18:01;;;;;;;20.10;12.00;;;;;;;6.07;77.06;103103.52;108906;1257;138885;-61
2024/02/18 09:20:29;;;;;;;15.10;10.70;;;;;;;6.08;76.89;103096.65;108855;1257;61100;-63
2024/02/18 09:22:56;;;;;;;16.00;11.30;;;;;;;6.20;77.10;103091.13;104957;1260;139813;-64
2024/02/18 09:25:22;;;;;;;14.40;11.10;;;;;;;6.27;76.91;103095.04;104482;1257;173581;-63
2024/02/18 09:27:49;;;;;;;16.00;11.50;;;;;;;6.32;76.62;103097.35;104576;1259;67051;-61
2024/02/18 09:30:16;;;;;;;12.10;10.60;;;;;;;6.35;76.36;103099.80;104392;1258;139274;-62
2024/02/18 09:32:44;;;;;;;15.10;11.10;;;;;;;6.35;76.18;103100.40;104615;1259;61154;-63
2024/02/18 09:35:14;;;;;;;17.50;13.20;;;;;;;6.40;76.26;103104.46;108821;1256;138030;-62
2024/02/18 09:37:41;;;;;;;17.50;12.90;;;;;;;6.45;76.00;103103.93;108604;1257;73819;-63
2024/02/18 09:40:09;;;;;;;18.20;12.00;;;;;;;6.50;76.13;103103.08;108682;1255;66012;-61
2024/02/18 09:42:39;;;;;;;15.20;10.60;;;;;;;6.64;76.24;103094.95;108587;1257;137993;-61
2024/02/18 09:45:07;;;;;;;15.60;10.60;;;;;;;6.69;75.69;103082.80;108728;1254;60169;-62
2024/02/18 09:47:34;;;;;;;13.90;10.30;;;;;;;6.71;75.61;103077.92;108506;1255;138412;-62
2024/02/18 09:50:01;;;;;;;11.90;9.80;;;;;;;6.76;75.48;103074.98;105727;1259;75431;-62
2024/02/18 09:52:28;;;;;;;11.80;8.80;;;;;;;6.76;75.24;103070.10;107818;1260;138523;-64
2024/02/18 09:54:55;;;;;;;14.20;9.30;;;;;;;6.74;75.07;103070.49;108539;1257;73206;-62
2024/02/18 09:57:22;;;;;;;11.10;9.10;;;;;;;6.70;74.62;103080.98;108526;1254;59752;-63
2024/02/18 09:59:49;;;;;;;12.30;8.10;;;;;;;6.60;74.42;103080.88;108625;1255;138347;-63
2024/02/18 10:02:16;;;;;;;13.70;8.40;;;;;;;6.51;74.29;103079.99;108602;1256;75888;-63
2024/02/18 10:04:46;;;;;;;9.10;7.30;;;;;;;6.39;74.05;103075.74;108502;1257;137848;-62
2024/02/18 10:07:14;;;;;;;7.80;6.90;;;;;;;6.26;73.97;103075.75;108546;1257;72982;-63
2024/02/18 10:09:43;;;;;;;8.40;6.70;;;;;;;6.26;74.04;103077.80;105631;1254;61304;-62
2024/02/18 10:12:13;;;;;;;10.50;7.40;;;;;;;6.27;74.04;103074.61;104469;1260;138199;-64
2024/02/18 10:14:40;;;;;;;9.40;6.70;;;;;;;6.30;74.08;103078.16;104777;1257;75280;-64
2024/02/18 10:17:07;;;;;;;10.10;6.50;;;;;;;6.29;73.92;103074.27;104653;1260;139019;-65
2024/02/18 10:19:33;;;;;;;9.60;7.80;;;;;;;6.30;73.90;103075.05;104684;1256;74276;-64
2024/02/18 10:22:01;;;;;;;10.40;9.20;;;;;;;6.23;73.82;103070.11;104766;1259;61231;-63
2024/02/18 10:27:06;;;;;;;12.60;10.70;;;;;;;6.09;73.70;103076.52;104541;1293;600648;-62
2024/02/18 10:29:32;;;;;;;11.60;9.90;;;;;;;6.02;73.76;103071.27;108077;1268;137658;-60
2024/02/18 10:31:59;;;;;;;11.80;9.60;;;;;;;6.07;74.01;103071.81;108432;1264;60407;-63
2024/02/18 10:34:26;;;;;;;12.90;10.70;;;;;;;6.13;73.98;103073.33;108493;1264;73748;-62
2024/02/18 10:36:55;;;;;;;14.10;10.50;;;;;;;6.18;73.95;103065.34;108609;1262;66826;-62
2024/02/18 10:39:22;;;;;;;12.70;10.50;;;;;;;6.22;73.87;103056.27;108561;1264;73436;-63
2024/02/18 10:42:09;;;;;;;17.70;12.50;;;;;;;6.26;73.93;103053.27;108387;1263;173869;-63
2024/02/18 10:44:40;;;;;;;18.40;12.80;;;;;;;6.30;73.89;103047.70;108783;1260;59141;-63
2024/02/18 10:47:07;;;;;;;14.50;11.60;;;;;;;6.33;73.64;103048.42;108564;1260;137059;-62
2024/02/18 10:49:39;;;;;;;15.20;12.10;;;;;;;6.34;73.65;103039.77;108651;1261;65002;-63
2024/02/18 10:52:16;;;;;;;14.90;10.90;;;;;;;6.47;73.88;103033.65;108630;1261;72765;-62
2024/02/18 10:54:54;;;;;;;15.70;11.00;;;;;;;6.51;73.59;103027.51;108458;1261;138459;-63
2024/02/18 10:57:25;;;;;;;13.50;10.60;;;;;;;6.60;73.75;103024.40;108637;1261;59822;-63
2024/02/18 10:59:57;;;;;;;13.20;9.70;;;;;;;6.74;73.82;103024.41;108498;1261;138592;-63
2024/02/18 11:02:24;;;;;;;12.30;9.30;;;;;;;6.83;73.70;103020.55;108614;1261;65408;-63
2024/02/18 11:04:50;;;;;;;11.30;8.10;;;;;;;6.93;73.66;103019.23;108448;1261;137242;-63
2024/02/18 11:07:17;;;;;;;9.20;8.00;;;;;;;7.04;73.39;103019.35;108634;1261;58248;-63
2024/02/18 11:09:45;;;;;;;9.80;8.80;;;;;;;7.09;73.20;103022.14;108686;1260;60446;-63
2024/02/18 11:12:14;;;;;;;10.10;9.00;;;;;;;7.06;72.90;103016.51;108518;1266;137018;-63
2024/02/18 11:14:40;;;;;;;12.80;10.10;;;;;;;7.05;72.87;103013.66;108707;1260;67232;-63